• Join FlightAware (Why Join?)
  • Login
  • US Flag 
11:25AM EDT


 

Airport Tracker/Info


-or-


 

Live Flight TrackerFlight Track Log ✈ N352DS ✈ 19-Aug-2013 ✈ KABE - KBID

Flight Track Log - Related Links

Times and Time Zones

All times are in EDT time to prevent confusion due to time zone crossing. See the N352DS flight status page for this flight to view local times or setup timezone preferences in your user account.

Time Position Orientation Groundspeed Altitude Reporting Facility
EDT Latitude Longitude Course Direction KTS MPH feet Rate Location/Type
01:06PM 40.7000 -74.5000 66° East 143 165 5,600  Level New York TRACON
01:07PM 40.7167 -74.4500 66° East 141 162 5,600  Level New York TRACON
01:08PM 40.7167 -74.4000 90° East 134 154 5,600  Level New York TRACON
01:09PM 40.7333 -74.3667 57° Northeast 133 153 5,600 -60 Level New York TRACON
01:10PM 40.7333 -74.3167 90° East 139 160 5,500 -60 Descending New York TRACON
01:10PM 40.7500 -74.2667 66° East 135 155 5,500  Level New York TRACON
01:12PM 40.7667 -74.2167 66° East 129 148 5,500  Level New York TRACON
01:12PM 40.7667 -74.1833 90° East 127 146 5,500  Level New York TRACON
01:14PM 40.7833 -74.1333 66° East 131 151 5,500  Level New York TRACON
01:15PM 40.7833 -74.0833 90° East 129 148 5,500  Level New York TRACON
01:16PM 40.8000 -74.0333 66° East 129 148 5,500  Level New York TRACON
01:17PM 40.8000 -74.0000 90° East 130 150 5,500  Level New York TRACON
01:18PM 40.8167 -73.9500 66° East 135 155 5,500  Level New York TRACON
01:19PM 40.8167 -73.9000 90° East 127 146 5,500  Level New York TRACON
01:20PM 40.8333 -73.8500 66° East 130 150 5,500  Level New York TRACON
01:21PM 40.8500 -73.8167 57° Northeast 128 147 5,500  Level New York TRACON
01:22PM 40.8500 -73.7667 90° East 132 152 5,500  Level New York TRACON
01:23PM 40.8667 -73.7167 66° East 132 152 5,500  Level New York TRACON
01:24PM 40.8833 -73.6667 66° East 135 155 5,500  Level New York TRACON
01:25PM 40.8833 -73.6167 90° East 136 157 5,500  Level New York TRACON
01:26PM 40.9000 -73.5833 57° Northeast 135 155 5,500  Level New York TRACON
01:26PM 40.9000 -73.5333 90° East 133 153 5,500  Level New York TRACON
01:27PM 40.9167 -73.4833 66° East 133 153 5,500  Level New York TRACON
01:29PM 40.9333 -73.4333 66° East 133 153 5,500  Level New York TRACON
01:30PM 40.9333 -73.3833 90° East 134 154 5,500  Level New York TRACON
01:31PM 40.9500 -73.3500 56° Northeast 132 152 5,600  Climbing New York TRACON
01:32PM 40.9333 -73.3000 114° Southeast 139 160 5,600 -60 Level New York TRACON
01:33PM 40.9333 -73.2500 90° East 143 165 5,500 -60 Descending New York TRACON
01:34PM 40.9333 -73.2000 90° East 133 153 5,500  Level New York TRACON
01:35PM 40.9333 -73.1500 90° East 137 158 5,500  Level New York TRACON
01:36PM 40.9333 -73.1000 90° East 138 159 5,500  Level New York TRACON
01:37PM 40.9500 -73.0500 66° East 134 154 5,500  Level New York TRACON
01:38PM 40.9500 -73.0000 90° East 139 160 5,500  Level New York TRACON
01:39PM 40.9500 -72.9500 90° East 145 167 5,500  Level New York TRACON
01:40PM 40.9500 -72.9000 90° East 144 166 5,500  Level New York TRACON
01:41PM 40.9500 -72.8333 90° East 140 161 5,500  Level New York TRACON
01:42PM 40.9667 -72.7833 66° East 142 163 5,500 -60 Level New York TRACON
01:43PM 40.9667 -72.7333 90° East 142 163 5,400  Descending New York TRACON
01:44PM 40.9667 -72.6833 90° East 139 160 5,600  Climbing New York TRACON
01:45PM 40.9833 -72.6333 66° East 142 163 5,500 -60 Descending New York TRACON
01:46PM 41.0000 -72.5833 66° East 143 165 5,500  Level New York TRACON
01:47PM 41.0000 -72.5333 90° East 146 168 5,500  Level New York TRACON
01:48PM 41.0000 -72.4833 90° East 142 163 5,500 -60 Level New York TRACON
01:49PM 41.0125 -72.3933 80° East 174 200 5,400  Descending Boston Center
01:50PM 41.0208 -72.3492 76° East 128 147 5,500 60 Climbing Boston Center
01:51PM 41.0289 -72.2997 78° East 130 150 5,600  Climbing Boston Center
01:52PM 41.0353 -72.2475 81° East 131 151 5,600 -60 Level Boston Center
01:53PM 41.0350 -72.1953 90° East 146 168 5,500 -60 Descending Boston Center
01:54PM 41.0433 -72.1511 76° East 133 153 5,500  Level Boston Center
01:55PM 41.0494 -72.1044 80° East 133 153 5,500  Level Boston Center
01:56PM 41.0556 -72.0547 81° East 137 158 5,500  Level Boston Center
01:57PM 41.0594 -72.0053 84° East 136 157 5,600  Climbing Boston Center
01:58PM 41.0697 -71.9583 74° East 132 152 5,500 -120 Descending Boston Center